createdAt,value
2023-02-23T00:02:59.186Z,1.21
2023-02-23T00:06:13.685Z,1.16
2023-02-23T00:09:31.007Z,1.05
2023-02-23T00:12:43.062Z,1.02
2023-02-23T00:15:55.463Z,1.00
2023-02-23T00:19:08.621Z,0.92
2023-02-23T00:22:20.715Z,0.95
2023-02-23T00:25:33.928Z,1.01
2023-02-23T00:28:47.556Z,0.93
2023-02-23T00:32:00.123Z,0.89
2023-02-23T00:35:17.472Z,0.87
2023-02-23T00:38:31.796Z,0.80
2023-02-23T00:41:46.314Z,0.80
2023-02-23T00:44:58.390Z,0.85
2023-02-23T00:48:13.803Z,0.78
2023-02-23T00:51:27.014Z,0.79
2023-02-23T00:54:38.924Z,0.73
2023-02-23T00:57:52.537Z,0.76
2023-02-23T01:01:05.536Z,0.67
2023-02-23T01:04:19.153Z,0.67
2023-02-23T01:07:32.729Z,0.61
2023-02-23T01:10:51.046Z,0.58
2023-02-23T01:14:05.444Z,0.59
2023-02-23T01:17:17.980Z,0.59
2023-02-23T01:20:42.399Z,0.59
2023-02-23T01:23:57.765Z,0.57
2023-02-23T01:27:09.837Z,0.49
2023-02-23T01:30:22.930Z,0.44
2023-02-23T01:40:59.098Z,0.31
2023-02-23T01:44:16.713Z,0.32
2023-02-23T01:47:29.902Z,0.31
2023-02-23T01:50:57.637Z,0.29
2023-02-23T01:54:16.004Z,0.27
2023-02-23T01:57:29.960Z,0.31
2023-02-23T02:00:42.956Z,0.27
2023-02-23T02:04:00.140Z,0.28
2023-02-23T02:07:14.257Z,0.22
2023-02-23T02:10:50.368Z,0.21
2023-02-23T02:14:08.714Z,0.18
2023-02-23T02:17:37.873Z,0.20
2023-02-23T02:21:27.368Z,0.14
2023-02-23T02:25:26.643Z,0.18
2023-02-23T02:30:02.665Z,0.09
2023-02-23T02:33:40.498Z,0.07
2023-02-23T02:37:14.643Z,0.02
2023-02-23T02:40:32.909Z,-0.06
2023-02-23T02:43:52.522Z,-0.06
2023-02-23T02:47:08.968Z,-0.08
2023-02-23T02:50:28.324Z,-0.12
2023-02-23T02:53:48.240Z,-0.12
2023-02-23T02:57:04.526Z,-0.10
2023-02-23T03:00:39.731Z,-0.06
2023-02-23T03:04:08.291Z,-0.07
2023-02-23T03:07:39.742Z,-0.13
2023-02-23T03:11:15.189Z,-0.13
2023-02-23T03:14:51.891Z,-0.17
2023-02-23T03:18:25.219Z,-0.27
2023-02-23T03:21:58.621Z,-0.21
2023-02-23T03:25:31.052Z,-0.27
2023-02-23T03:29:04.763Z,-0.28
2023-02-23T03:32:37.122Z,-0.30
2023-02-23T03:36:09.848Z,-0.33
2023-02-23T03:39:44.975Z,-0.32
2023-02-23T03:43:17.358Z,-0.36
2023-02-23T03:46:48.247Z,-0.35
2023-02-23T03:50:17.646Z,-0.38
2023-02-23T03:53:50.312Z,-0.37
2023-02-23T03:57:20.389Z,-0.40
2023-02-23T04:00:51.983Z,-0.39
2023-02-23T04:04:20.612Z,-0.44
2023-02-23T04:07:47.369Z,-0.51
2023-02-23T04:11:19.573Z,-0.52
2023-02-23T04:14:33.876Z,-0.60
2023-02-23T04:17:46.326Z,-0.56
2023-02-23T04:20:59.152Z,-0.53
2023-02-23T04:24:12.942Z,-0.57
2023-02-23T04:27:25.442Z,-0.54
2023-02-23T04:30:50.463Z,-0.59
2023-02-23T04:34:04.880Z,-0.63
2023-02-23T04:37:16.989Z,-0.63
2023-02-23T04:47:49.646Z,-0.66
2023-02-23T04:51:02.282Z,-0.67
2023-02-23T04:57:55.490Z,-0.70
2023-02-23T05:01:43.194Z,-0.70
2023-02-23T05:04:55.152Z,-0.69
2023-02-23T05:08:07.115Z,-0.70
2023-02-23T05:11:19.385Z,-0.72
2023-02-23T05:14:42.349Z,-0.74
2023-02-23T05:17:55.061Z,-0.76
2023-02-23T05:21:12.530Z,-0.79
2023-02-23T05:24:25.650Z,-0.78
2023-02-23T05:27:50.399Z,-0.79
2023-02-23T05:42:23.355Z,-0.81
2023-02-23T05:45:35.071Z,-0.81
2023-02-23T05:48:47.126Z,-0.82
2023-02-23T05:52:09.797Z,-0.81
2023-02-23T05:55:22.583Z,-0.76
2023-02-23T06:10:40.508Z,-0.67
2023-02-23T06:13:52.891Z,-0.60
2023-02-23T06:17:05.724Z,-0.57
2023-02-23T06:20:19.860Z,-0.51
2023-02-23T06:23:32.072Z,-0.45
2023-02-23T06:26:44.553Z,-0.38
2023-02-23T06:29:56.894Z,-0.30
2023-02-23T06:33:10.275Z,-0.27
2023-02-23T06:36:34.550Z,-0.16
2023-02-23T06:39:48.064Z,-0.18
2023-02-23T06:43:00.662Z,-0.07
2023-02-23T06:46:13.984Z,0.00
2023-02-23T06:49:25.997Z,0.04
2023-02-23T06:52:38.269Z,0.14
2023-02-23T06:55:50.352Z,0.26
2023-02-23T06:59:02.440Z,0.47
2023-02-23T07:02:16.485Z,0.59
2023-02-23T07:05:28.484Z,0.73
2023-02-23T07:08:41.357Z,0.83
2023-02-23T07:11:53.330Z,1.01
2023-02-23T07:15:05.242Z,0.92
2023-02-23T07:18:17.190Z,1.08
2023-02-23T07:21:29.094Z,1.25
2023-02-23T07:24:41.720Z,1.52
2023-02-23T07:27:54.234Z,1.55
2023-02-23T07:31:07.598Z,1.64
2023-02-23T07:34:19.768Z,1.67
2023-02-23T07:37:31.681Z,1.82
2023-02-23T07:40:43.704Z,1.83
2023-02-23T07:43:55.781Z,2.06
2023-02-23T07:47:07.811Z,1.85
2023-02-23T07:50:20.437Z,2.05
2023-02-23T07:53:32.606Z,2.07
2023-02-23T07:56:44.611Z,2.21
2023-02-23T07:59:56.632Z,2.27
2023-02-23T08:03:10.553Z,2.40
2023-02-23T08:06:23.305Z,2.37
2023-02-23T08:09:35.548Z,2.59
2023-02-23T08:12:47.513Z,2.59
2023-02-23T08:15:59.484Z,2.57
2023-02-23T08:19:11.529Z,2.90
2023-02-23T08:22:23.434Z,3.23
2023-02-23T08:25:35.680Z,3.51
2023-02-23T08:28:47.663Z,3.64
2023-02-23T08:32:00.185Z,3.71
2023-02-23T08:35:14.105Z,3.72
2023-02-23T08:42:17.728Z,4.46
2023-02-23T08:45:29.774Z,4.68
2023-02-23T08:48:42.217Z,5.06
2023-02-23T08:51:54.063Z,5.25
2023-02-23T08:55:06.008Z,5.50
2023-02-23T08:58:18.236Z,5.51
2023-02-23T09:01:41.055Z,6.08
2023-02-23T09:04:54.137Z,5.87
2023-02-23T09:08:07.287Z,5.86
2023-02-23T09:11:19.601Z,6.08
2023-02-23T09:14:32.457Z,6.63
2023-02-23T09:17:45.443Z,6.63
2023-02-23T09:20:57.727Z,6.85
2023-02-23T09:24:10.122Z,7.10
2023-02-23T09:27:22.331Z,7.20
2023-02-23T09:30:34.681Z,7.36
2023-02-23T09:33:47.241Z,7.37
2023-02-23T09:36:59.390Z,7.37
2023-02-23T09:40:14.917Z,7.45
2023-02-23T09:43:33.735Z,7.03
2023-02-23T09:46:51.232Z,7.04
2023-02-23T09:50:06.612Z,6.65
2023-02-23T09:53:29.421Z,7.02
2023-02-23T09:56:46.196Z,7.07
2023-02-23T09:59:58.127Z,7.32
2023-02-23T10:03:25.674Z,7.03
2023-02-23T10:06:38.371Z,7.26
2023-02-23T10:10:15.094Z,7.16
2023-02-23T10:13:37.897Z,7.26
2023-02-23T10:17:02.524Z,7.32
2023-02-23T10:20:26.403Z,7.42
2023-02-23T10:23:42.932Z,7.41
2023-02-23T10:26:58.621Z,7.13
2023-02-23T10:30:20.944Z,7.64
2023-02-23T10:33:39.726Z,7.28
2023-02-23T10:36:56.401Z,7.33
2023-02-23T10:40:09.332Z,7.27
2023-02-23T10:43:21.670Z,7.36
2023-02-23T10:46:41.540Z,7.35
2023-02-23T10:49:55.439Z,7.25
2023-02-23T10:53:16.602Z,7.52
2023-02-23T10:56:31.151Z,7.47
2023-02-23T10:59:43.525Z,7.68
2023-02-23T11:02:55.597Z,8.02
2023-02-23T11:06:08.589Z,8.32
2023-02-23T11:09:45.629Z,8.47
2023-02-23T11:12:49.954Z,8.79
2023-02-23T11:16:10.486Z,8.99
2023-02-23T11:19:28.750Z,8.96
2023-02-23T11:22:43.574Z,8.82
2023-02-23T11:26:00.063Z,9.01
2023-02-23T11:29:18.354Z,9.29
2023-02-23T11:32:36.376Z,8.97
2023-02-23T11:35:48.606Z,9.28
2023-02-23T11:39:16.004Z,9.66
2023-02-23T11:42:27.982Z,9.49
2023-02-23T11:45:45.733Z,9.46
2023-02-23T11:49:04.118Z,9.61
2023-02-23T11:52:24.236Z,9.69
2023-02-23T11:55:37.359Z,9.80
2023-02-23T11:58:54.036Z,10.09
2023-02-23T12:02:15.665Z,9.84
2023-02-23T12:05:30.861Z,9.77
2023-02-23T12:08:52.454Z,9.97
2023-02-23T12:12:09.160Z,9.70
2023-02-23T12:15:28.297Z,9.56
2023-02-23T12:18:53.045Z,9.66
2023-02-23T12:22:14.050Z,9.56
2023-02-23T12:25:32.246Z,9.61
2023-02-23T12:28:49.644Z,9.38
2023-02-23T12:32:08.415Z,9.52
2023-02-23T12:35:29.514Z,9.53
2023-02-23T12:38:51.121Z,9.34
2023-02-23T12:42:11.458Z,9.26
2023-02-23T12:45:32.710Z,9.36
2023-02-23T12:48:52.999Z,9.41
2023-02-23T12:52:11.639Z,9.39
2023-02-23T12:55:29.961Z,9.46
2023-02-23T12:58:50.172Z,9.43
2023-02-23T13:02:07.957Z,9.41
2023-02-23T13:05:29.384Z,9.36
2023-02-23T13:08:56.236Z,9.58
2023-02-23T13:12:27.412Z,9.70
2023-02-23T13:15:51.323Z,9.69
2023-02-23T13:19:10.552Z,9.62
2023-02-23T13:22:36.603Z,9.80
2023-02-23T13:25:57.581Z,9.73
2023-02-23T13:29:14.697Z,9.63
2023-02-23T13:32:33.117Z,9.66
2023-02-23T13:35:45.905Z,9.67
2023-02-23T13:39:24.715Z,9.67
2023-02-23T13:42:49.720Z,9.71
2023-02-23T13:46:28.480Z,9.71
2023-02-23T13:49:48.806Z,9.66
2023-02-23T13:53:06.868Z,9.68
2023-02-23T13:56:24.312Z,9.66
2023-02-23T13:59:47.763Z,9.65
2023-02-23T14:03:02.127Z,9.67
2023-02-23T14:06:19.240Z,9.57
2023-02-23T14:09:38.964Z,9.59
2023-02-23T14:13:10.772Z,9.57
2023-02-23T14:16:25.885Z,9.55
2023-02-23T14:19:45.582Z,9.53
2023-02-23T14:23:37.326Z,9.54
2023-02-23T14:27:08.544Z,9.46
2023-02-23T14:30:32.364Z,9.51
2023-02-23T14:33:55.315Z,9.45
2023-02-23T14:37:22.020Z,9.42
2023-02-23T14:40:38.995Z,9.33
2023-02-23T14:43:51.058Z,9.37
2023-02-23T14:47:07.796Z,9.32
2023-02-23T14:50:27.819Z,9.30
2023-02-23T14:53:40.543Z,9.33
2023-02-23T14:56:58.394Z,9.30
2023-02-23T15:00:22.288Z,9.24
2023-02-23T15:03:34.913Z,9.19
2023-02-23T15:06:51.073Z,9.19
2023-02-23T15:10:07.219Z,9.18
2023-02-23T15:13:25.574Z,9.13
2023-02-23T15:16:40.489Z,9.10
2023-02-23T15:19:58.011Z,9.04
2023-02-23T15:23:11.084Z,9.00
2023-02-23T15:26:33.288Z,8.97
2023-02-23T15:29:45.699Z,8.84
2023-02-23T15:33:08.234Z,8.85
2023-02-23T15:36:27.695Z,8.80
2023-02-23T15:39:46.040Z,8.72
2023-02-23T15:43:01.713Z,8.68
2023-02-23T15:46:17.038Z,8.61
2023-02-23T15:49:38.583Z,8.53
2023-02-23T15:52:56.309Z,8.44
2023-02-23T15:56:16.148Z,8.41
2023-02-23T15:59:35.220Z,8.32
2023-02-23T16:02:49.907Z,8.27
2023-02-23T16:06:11.995Z,8.21
2023-02-23T16:09:35.480Z,8.16
2023-02-23T16:12:49.256Z,8.06
2023-02-23T16:16:02.850Z,8.02
2023-02-23T16:19:19.640Z,7.99
2023-02-23T16:22:33.516Z,7.94
2023-02-23T16:25:47.922Z,7.93
2023-02-23T16:29:05.125Z,7.90
2023-02-23T16:32:23.157Z,7.87
2023-02-23T16:35:45.427Z,7.84
2023-02-23T16:39:06.955Z,7.79
2023-02-23T16:42:25.384Z,7.75
2023-02-23T16:45:39.417Z,7.72
2023-02-23T16:48:51.866Z,7.65
2023-02-23T16:52:04.719Z,7.61
2023-02-23T16:55:23.229Z,7.57
2023-02-23T16:58:36.125Z,7.58
2023-02-23T17:01:50.351Z,7.55
2023-02-23T17:05:02.585Z,7.54
2023-02-23T17:08:14.971Z,7.55
2023-02-23T17:11:27.270Z,7.48
2023-02-23T17:14:39.528Z,7.36
2023-02-23T17:17:53.368Z,7.31
2023-02-23T17:21:08.479Z,7.30
2023-02-23T17:24:22.697Z,7.32
2023-02-23T17:27:35.074Z,7.29
2023-02-23T17:30:49.555Z,7.32
2023-02-23T17:34:02.238Z,7.33
2023-02-23T17:37:14.584Z,7.32
2023-02-23T17:40:33.482Z,7.20
2023-02-23T17:43:45.769Z,7.13
2023-02-23T17:46:58.021Z,7.10
2023-02-23T17:50:12.005Z,7.10
2023-02-23T17:53:24.332Z,7.14
2023-02-23T17:56:36.488Z,7.17
2023-02-23T17:59:48.609Z,7.17
2023-02-23T18:03:01.019Z,7.16
2023-02-23T18:06:16.959Z,7.10
2023-02-23T18:09:29.192Z,7.04
2023-02-23T18:12:42.038Z,6.98
2023-02-23T18:15:58.909Z,6.94
2023-02-23T18:19:11.482Z,6.86
2023-02-23T18:22:24.548Z,6.79
2023-02-23T18:25:38.234Z,6.76
2023-02-23T18:28:51.442Z,6.76
2023-02-23T18:32:05.528Z,6.74
2023-02-23T18:35:18.979Z,6.70
2023-02-23T18:38:31.335Z,6.67
2023-02-23T18:41:44.131Z,6.62
2023-02-23T18:44:56.592Z,6.57
2023-02-23T18:48:10.925Z,6.52
2023-02-23T18:51:23.684Z,6.53
2023-02-23T18:54:35.929Z,6.55
2023-02-23T18:57:48.730Z,6.57
2023-02-23T19:01:00.998Z,6.60
2023-02-23T19:04:15.038Z,6.62
2023-02-23T19:07:27.259Z,6.62
2023-02-23T19:10:39.565Z,6.64
2023-02-23T19:13:53.611Z,6.67
2023-02-23T19:17:05.822Z,6.71
2023-02-23T19:20:19.976Z,6.74
2023-02-23T19:23:32.673Z,6.76
2023-02-23T19:26:45.267Z,6.75
2023-02-23T19:29:57.671Z,6.74
2023-02-23T19:33:10.207Z,6.75
2023-02-23T19:36:27.250Z,6.69
2023-02-23T19:39:40.440Z,6.68
2023-02-23T19:42:53.471Z,6.69
2023-02-23T19:46:10.720Z,6.66
2023-02-23T19:49:23.336Z,6.60
2023-02-23T19:52:35.632Z,6.57
2023-02-23T19:55:49.629Z,6.51
2023-02-23T19:59:04.299Z,6.51
2023-02-23T20:02:17.523Z,6.47
2023-02-23T20:05:31.568Z,6.44
2023-02-23T20:08:44.607Z,6.44
2023-02-23T20:11:56.791Z,6.39
2023-02-23T20:15:10.788Z,6.37
2023-02-23T20:18:23.457Z,6.30
2023-02-23T20:21:38.109Z,6.23
2023-02-23T20:24:51.099Z,6.16
2023-02-23T20:28:03.598Z,6.11
2023-02-23T20:31:25.570Z,6.09
2023-02-23T20:34:39.274Z,6.09
2023-02-23T20:37:51.820Z,6.11
2023-02-23T20:41:04.562Z,6.04
2023-02-23T20:44:18.100Z,5.99
2023-02-23T20:47:30.141Z,5.93
2023-02-23T20:50:43.794Z,5.90
2023-02-23T20:53:57.165Z,5.84
2023-02-23T20:57:19.385Z,5.86
2023-02-23T21:00:35.624Z,5.80
2023-02-23T21:03:48.005Z,5.73
2023-02-23T21:07:00.419Z,5.73
2023-02-23T21:10:15.091Z,5.74
2023-02-23T21:13:28.803Z,5.73
2023-02-23T21:16:43.303Z,5.67
2023-02-23T21:19:55.509Z,5.63
2023-02-23T21:23:08.348Z,5.53
2023-02-23T21:26:21.818Z,5.52
2023-02-23T21:29:34.240Z,5.59
2023-02-23T21:32:47.103Z,5.61
2023-02-23T21:35:59.432Z,5.58
2023-02-23T21:39:12.877Z,5.49
2023-02-23T21:42:25.001Z,5.49
2023-02-23T21:45:38.200Z,5.47
2023-02-23T21:48:51.073Z,5.43
2023-02-23T21:52:03.588Z,5.41
2023-02-23T21:55:22.227Z,5.39
2023-02-23T21:58:32.962Z,5.50
2023-02-23T22:01:46.647Z,5.50
2023-02-23T22:04:58.811Z,5.57
2023-02-23T22:08:13.291Z,5.61
2023-02-23T22:11:28.750Z,5.66
2023-02-23T22:14:43.550Z,5.64
2023-02-23T22:17:55.636Z,5.60
2023-02-23T22:21:09.929Z,5.64
2023-02-23T22:24:23.880Z,5.65
2023-02-23T22:27:36.116Z,5.66
2023-02-23T22:30:51.216Z,5.64
2023-02-23T22:34:05.466Z,5.62
2023-02-23T22:37:19.608Z,5.59
2023-02-23T22:40:31.820Z,5.58
2023-02-23T22:43:45.808Z,5.59
2023-02-23T22:46:58.220Z,5.50
2023-02-23T22:50:14.339Z,5.43
2023-02-23T22:53:26.784Z,5.47
2023-02-23T22:56:42.031Z,5.55
2023-02-23T23:00:00.824Z,5.79
2023-02-23T23:03:13.265Z,5.94
2023-02-23T23:06:26.978Z,6.14
2023-02-23T23:09:40.109Z,6.15
2023-02-23T23:12:52.510Z,6.25
2023-02-23T23:16:09.231Z,6.44
2023-02-23T23:19:23.926Z,6.62
2023-02-23T23:22:36.619Z,6.70
2023-02-23T23:25:52.204Z,6.80
2023-02-23T23:29:09.913Z,6.82
2023-02-23T23:32:26.907Z,6.85
2023-02-23T23:35:38.034Z,6.86
2023-02-23T23:38:50.945Z,6.74
2023-02-23T23:42:05.410Z,6.58
2023-02-23T23:45:24.599Z,6.51
2023-02-23T23:48:36.587Z,6.41
2023-02-23T23:51:52.168Z,6.33
2023-02-23T23:55:04.803Z,6.23
2023-02-23T23:58:18.549Z,6.13
